Altha, Florida
Current Conditions -  °F | °C
As of 11:53 PM on Tuesday 25 Nov 2014 (Local Time) from KMAI Reporting Station
Moderate Rain Moderate Rain  
Wind Chill: 47°   Ceiling: 6000
Heat Index: 47°   Visibility: 6mi
Dew Point: 47°   Wind: 0mph
Humidity: 100%   Direction: NA
Pressure: 30.06"   Gusts: NA
Location:  30.57°N, 85.13°W
Report Text: KMAI 260553Z AUTO 00000KT 6SM RA BR OVC060 08/08 A3006 RMK AO2 SLP178 P0003 60020 T00830083 10100 20083 401670083 55007
Loading
Personal Weather Stations






























Interactive Weather Map New forecast layout! Learn more

10-Day Weather Forecast

Advertisements
Track Severe Weather on mobile